Time;durP1;ratioP1;P1;durP2;ratioP2;P2;SDS_P1;SDS_P2;PMS_P1;PMS_P2;Temp;Humidity;BMP_temperature;BMP_pressure;BME280_temperature;BME280_humidity;BME280_pressure;Samples;Min_cycle;Max_cycle;Signal;HPM_P1;HPM_P2
2021/08/09 00:01:21;;;;;;;1.60;1.20;;;15.80;76.00;;;;;;4987449;28;20522;-65
2021/08/09 00:03:47;;;;;;;1.10;1.00;;;15.80;76.10;;;;;;4988097;28;20047;-64
2021/08/09 00:06:13;;;;;;;1.45;1.00;;;15.80;76.20;;;;;;4998925;28;20050;-65
2021/08/09 00:08:38;;;;;;;1.00;0.80;;;15.70;77.20;;;;;;4987424;28;20113;-64
2021/08/09 00:11:04;;;;;;;1.20;1.10;;;15.70;76.30;;;;;;4996293;28;20041;-65
2021/08/09 00:13:30;;;;;;;1.70;1.10;;;15.70;76.30;;;;;;4981472;28;20035;-64
2021/08/09 00:15:57;;;;;;;1.15;0.90;;;15.70;76.40;;;;;;4986716;28;20138;-63
2021/08/09 00:18:25;;;;;;;2.17;1.20;;;15.70;76.50;;;;;;4975633;28;20501;-63
2021/08/09 00:20:52;;;;;;;1.20;1.10;;;15.70;76.80;;;;;;4983557;28;20493;-64
2021/08/09 00:23:18;;;;;;;2.08;1.20;;;15.60;76.80;;;;;;4976423;28;20375;-64
2021/08/09 00:25:44;;;;;;;1.38;1.25;;;15.60;76.70;;;;;;4972156;28;20116;-64
2021/08/09 00:28:10;;;;;;;1.27;1.00;;;15.70;76.60;;;;;;4976970;28;20030;-64
2021/08/09 00:30:35;;;;;;;4.80;1.17;;;15.60;76.50;;;;;;4975704;28;20038;-64
2021/08/09 00:33:01;;;;;;;1.13;0.90;;;15.60;76.60;;;;;;4978006;28;20030;-64
2021/08/09 00:35:27;;;;;;;1.52;1.00;;;15.60;76.70;;;;;;4979516;28;20077;-64
2021/08/09 00:37:52;;;;;;;2.00;1.20;;;15.60;76.90;;;;;;4974802;28;20499;-64
2021/08/09 00:40:18;;;;;;;2.03;1.30;;;15.60;77.00;;;;;;4966081;28;20514;-64
2021/08/09 00:42:44;;;;;;;1.38;1.23;;;15.60;76.80;;;;;;4979579;28;20155;-64
2021/08/09 00:45:10;;;;;;;2.83;1.20;;;15.50;76.90;;;;;;5002416;28;20120;-64
2021/08/09 00:47:35;;;;;;;1.65;1.30;;;15.50;77.00;;;;;;4976129;28;20038;-64
2021/08/09 00:50:01;;;;;;;1.15;1.00;;;15.50;77.30;;;;;;4987336;28;20042;-64
2021/08/09 00:52:27;;;;;;;1.75;1.23;;;15.40;77.30;;;;;;4978281;28;20045;-65
2021/08/09 00:54:53;;;;;;;1.50;1.25;;;15.40;77.30;;;;;;4975367;28;20126;-64
2021/08/09 00:57:18;;;;;;;2.33;1.00;;;15.40;77.30;;;;;;4974828;28;20592;-64
2021/08/09 00:59:44;;;;;;;2.00;1.20;;;15.30;77.20;;;;;;4990372;28;20044;-64
2021/08/09 01:02:10;;;;;;;1.05;0.95;;;15.30;77.20;;;;;;4974349;28;20081;-63
2021/08/09 01:04:36;;;;;;;4.88;0.90;;;15.30;77.20;;;;;;4983578;28;20038;-64
2021/08/09 01:07:02;;;;;;;2.67;1.20;;;15.20;77.30;;;;;;4979379;28;20037;-64
2021/08/09 01:09:34;;;;;;;1.73;1.23;;;15.20;77.20;;;;;;4979242;28;20033;-64
2021/08/09 01:12:06;;;;;;;1.05;1.05;;;15.20;77.20;;;;;;4973056;28;20038;-64
2021/08/09 01:15:10;;;;;;;1.33;1.00;;;15.20;77.10;;;;;;4977676;28;20437;-64
2021/08/09 01:17:43;;;;;;;1.13;1.02;;;15.20;77.70;;;;;;4975009;28;20113;-64
2021/08/09 01:20:33;;;;;;;1.20;1.10;;;15.20;77.30;;;;;;4976977;28;20042;-65
2021/08/09 01:23:27;;;;;;;3.03;1.23;;;15.20;77.30;;;;;;4978899;28;20033;-64
2021/08/09 01:25:58;;;;;;;1.20;1.02;;;15.20;77.40;;;;;;4974720;28;20042;-64
2021/08/09 01:28:29;;;;;;;2.00;1.10;;;15.10;78.30;;;;;;4977390;28;20033;-64
2021/08/09 01:30:56;;;;;;;1.40;1.08;;;15.10;77.40;;;;;;4972289;28;20034;-64
2021/08/09 01:33:23;;;;;;;1.58;1.42;;;15.00;77.30;;;;;;4974411;28;20038;-64
2021/08/09 01:35:53;;;;;;;1.58;1.30;;;15.00;78.30;;;;;;4970833;28;20069;-64
2021/08/09 01:38:20;;;;;;;1.67;1.20;;;15.00;77.70;;;;;;4981012;28;20145;-64
2021/08/09 01:40:47;;;;;;;1.38;1.27;;;14.90;77.60;;;;;;4974763;28;20046;-64
2021/08/09 01:43:14;;;;;;;1.42;1.33;;;15.00;77.70;;;;;;4978113;28;20034;-64
2021/08/09 01:45:41;;;;;;;2.15;1.30;;;14.90;77.70;;;;;;4974265;28;20057;-64
2021/08/09 01:48:07;;;;;;;1.20;1.10;;;14.90;77.70;;;;;;4973224;28;20097;-64
2021/08/09 01:50:33;;;;;;;1.77;1.40;;;14.90;77.70;;;;;;4971882;28;20057;-64
2021/08/09 01:52:59;;;;;;;2.97;1.30;;;14.90;77.70;;;;;;4990169;28;20502;-64
2021/08/09 01:55:25;;;;;;;7.32;1.40;;;14.90;77.60;;;;;;4980915;28;20066;-64
2021/08/09 01:57:51;;;;;;;1.67;1.20;;;14.90;77.70;;;;;;4971350;28;20038;-64
2021/08/09 02:00:17;;;;;;;1.20;1.10;;;14.90;77.50;;;;;;4976847;28;20039;-64
2021/08/09 02:02:44;;;;;;;1.90;1.20;;;14.90;77.30;;;;;;4973917;28;20801;-64
2021/08/09 02:05:12;;;;;;;1.65;1.40;;;14.90;78.20;;;;;;4979663;28;20042;-64
2021/08/09 02:07:41;;;;;;;1.98;1.60;;;14.90;77.30;;;;;;4996872;28;20027;-64
2021/08/09 02:10:09;;;;;;;1.75;1.38;;;14.90;77.20;;;;;;4984347;28;20034;-64
2021/08/09 02:12:57;;;;;;;5.05;2.35;;;14.80;77.00;;;;;;4982868;28;20477;-64
2021/08/09 02:15:36;;;;;;;6.30;2.33;;;14.80;77.70;;;;;;4985320;28;20038;-64
2021/08/09 02:18:27;;;;;;;5.35;2.17;;;14.70;77.70;;;;;;4983758;28;20035;-65
2021/08/09 02:20:57;;;;;;;5.05;2.45;;;14.70;77.90;;;;;;4978784;28;20825;-64
2021/08/09 02:23:34;;;;;;;3.00;1.80;;;14.60;77.60;;;;;;4984926;28;20045;-64
2021/08/09 02:26:01;;;;;;;2.38;1.95;;;14.50;77.70;;;;;;4980140;28;20042;-64
2021/08/09 02:28:29;;;;;;;3.08;1.90;;;14.50;77.70;;;;;;4977772;28;20120;-64
2021/08/09 02:31:02;;;;;;;3.63;2.05;;;14.50;77.80;;;;;;4978338;28;20041;-64
2021/08/09 02:33:29;;;;;;;2.67;2.10;;;14.40;77.80;;;;;;4982941;28;20035;-64
2021/08/09 02:35:58;;;;;;;3.03;2.00;;;14.40;77.70;;;;;;4991074;28;20081;-64
2021/08/09 02:38:24;;;;;;;3.28;2.10;;;14.40;77.70;;;;;;4980948;28;20074;-64
2021/08/09 02:40:51;;;;;;;3.45;1.92;;;14.40;77.70;;;;;;4979790;28;20509;-64
2021/08/09 02:43:17;;;;;;;3.13;1.65;;;14.40;77.50;;;;;;4980850;28;20520;-64
2021/08/09 02:45:43;;;;;;;3.08;2.00;;;14.40;77.50;;;;;;4984368;28;20038;-65
2021/08/09 02:48:09;;;;;;;2.40;2.00;;;14.40;77.50;;;;;;4982048;28;20042;-64
2021/08/09 02:50:35;;;;;;;3.15;1.85;;;14.30;77.30;;;;;;4974464;28;20077;-64
2021/08/09 02:53:01;;;;;;;2.50;2.05;;;14.30;77.40;;;;;;4983750;28;20040;-64
2021/08/09 02:55:27;;;;;;;2.22;2.00;;;14.30;77.50;;;;;;4981111;28;20034;-64
2021/08/09 02:57:54;;;;;;;2.78;1.80;;;14.20;77.70;;;;;;4974552;28;20042;-64
2021/08/09 03:00:19;;;;;;;2.17;1.90;;;14.20;77.90;;;;;;4972905;28;20040;-64
2021/08/09 03:02:46;;;;;;;2.45;2.00;;;14.20;77.90;;;;;;4973848;28;20038;-64
2021/08/09 03:05:13;;;;;;;4.97;1.77;;;14.20;77.80;;;;;;4981790;28;20042;-64
2021/08/09 03:07:41;;;;;;;1.60;1.50;;;14.20;77.60;;;;;;4978336;28;20038;-66
2021/08/09 03:10:09;;;;;;;1.95;1.65;;;14.10;77.60;;;;;;4980903;28;20523;-64
2021/08/09 03:12:35;;;;;;;2.00;1.77;;;14.10;77.70;;;;;;4968481;28;20045;-64
2021/08/09 03:15:02;;;;;;;3.58;1.73;;;14.00;77.60;;;;;;4980986;28;20042;-64
2021/08/09 03:17:28;;;;;;;1.77;1.67;;;14.00;77.70;;;;;;4980131;28;20137;-64
2021/08/09 03:19:53;;;;;;;3.22;2.13;;;13.90;77.70;;;;;;4974959;28;20785;-64
2021/08/09 03:22:19;;;;;;;2.10;1.63;;;13.90;78.00;;;;;;4977750;28;20038;-64
2021/08/09 03:24:45;;;;;;;2.50;1.80;;;13.80;78.20;;;;;;4970181;28;20695;-64
2021/08/09 03:27:10;;;;;;;2.50;1.65;;;13.80;78.60;;;;;;4975826;28;21259;-64
2021/08/09 03:29:36;;;;;;;1.63;1.52;;;13.70;78.70;;;;;;4976931;28;20129;-64
2021/08/09 03:32:02;;;;;;;2.15;1.60;;;13.70;79.80;;;;;;4980833;28;20061;-64
2021/08/09 03:34:27;;;;;;;1.77;1.67;;;13.70;79.10;;;;;;4977143;28;20889;-63
2021/08/09 03:36:53;;;;;;;2.58;1.48;;;13.70;79.30;;;;;;5001080;28;20037;-64
2021/08/09 03:39:22;;;;;;;2.10;1.58;;;13.70;79.30;;;;;;4984596;28;20030;-64
2021/08/09 03:41:47;;;;;;;1.63;1.50;;;13.80;79.30;;;;;;4978374;28;20038;-64
2021/08/09 03:44:13;;;;;;;1.55;1.45;;;13.80;79.10;;;;;;4976017;28;20437;-64
2021/08/09 03:46:40;;;;;;;1.70;1.60;;;13.80;79.10;;;;;;4975086;28;20117;-63
2021/08/09 03:49:09;;;;;;;2.58;1.45;;;13.80;80.00;;;;;;4984262;28;20042;-63
2021/08/09 03:51:37;;;;;;;2.88;1.50;;;13.80;79.10;;;;;;4977653;28;20061;-64
2021/08/09 03:54:03;;;;;;;3.22;1.75;;;13.90;79.10;;;;;;4980858;28;20059;-64
2021/08/09 03:56:29;;;;;;;1.77;1.55;;;13.90;79.10;;;;;;4974434;28;20449;-64
2021/08/09 03:58:54;;;;;;;1.58;1.48;;;13.90;79.20;;;;;;4973672;28;20034;-64
2021/08/09 04:01:20;;;;;;;2.47;1.60;;;13.90;79.10;;;;;;4979921;28;20061;-64
2021/08/09 04:03:46;;;;;;;1.63;1.40;;;14.00;79.10;;;;;;4975634;28;20119;-64
2021/08/09 04:06:11;;;;;;;1.75;1.65;;;14.00;79.10;;;;;;4980115;28;20101;-63
2021/08/09 04:08:40;;;;;;;2.85;1.70;;;14.00;79.10;;;;;;4981136;28;20049;-63
2021/08/09 04:11:06;;;;;;;4.50;1.42;;;14.00;78.90;;;;;;4978235;28;20486;-63
2021/08/09 04:13:32;;;;;;;1.70;1.60;;;14.00;78.70;;;;;;4977263;28;20058;-64
2021/08/09 04:15:57;;;;;;;3.28;1.90;;;13.90;78.60;;;;;;4972052;28;20039;-64
2021/08/09 04:18:23;;;;;;;5.22;1.60;;;13.90;78.70;;;;;;4980461;28;20158;-63
2021/08/09 04:20:48;;;;;;;1.42;1.33;;;13.90;79.00;;;;;;4980862;28;20465;-64
2021/08/09 04:23:14;;;;;;;2.35;1.60;;;13.90;79.20;;;;;;4985669;28;20038;-64
2021/08/09 04:25:39;;;;;;;1.50;1.38;;;13.90;79.20;;;;;;4975317;28;20113;-63
2021/08/09 04:28:05;;;;;;;2.22;1.40;;;13.90;79.20;;;;;;4979621;28;20069;-65
2021/08/09 04:30:31;;;;;;;1.77;1.50;;;13.80;79.20;;;;;;4986860;28;20035;-63
2021/08/09 04:32:56;;;;;;;1.85;1.33;;;13.90;79.30;;;;;;4980213;28;20406;-64
2021/08/09 04:35:22;;;;;;;3.00;1.50;;;13.90;79.20;;;;;;4976550;28;20100;-64
2021/08/09 04:37:48;;;;;;;2.35;1.55;;;13.90;79.10;;;;;;4980866;28;20457;-64
2021/08/09 04:40:14;;;;;;;5.85;1.80;;;13.90;79.30;;;;;;4981458;28;20077;-64
2021/08/09 04:42:40;;;;;;;4.10;1.58;;;13.90;79.40;;;;;;4975334;28;20046;-64
2021/08/09 04:45:06;;;;;;;2.78;1.40;;;13.90;79.50;;;;;;4972354;28;20062;-64
2021/08/09 04:47:32;;;;;;;2.40;1.80;;;13.90;79.60;;;;;;4978064;28;20100;-64
2021/08/09 04:49:57;;;;;;;2.40;2.00;;;14.00;79.70;;;;;;4981067;28;20047;-64
2021/08/09 04:52:23;;;;;;;2.47;2.00;;;14.00;80.50;;;;;;4979666;28;20121;-63
2021/08/09 04:54:49;;;;;;;2.70;1.83;;;14.00;79.70;;;;;;4984252;28;20061;-64
2021/08/09 04:57:14;;;;;;;2.33;1.98;;;14.10;79.70;;;;;;4981554;28;20038;-64
2021/08/09 04:59:40;;;;;;;3.13;1.80;;;14.10;79.60;;;;;;4979766;28;20069;-64
2021/08/09 05:02:05;;;;;;;2.30;2.10;;;14.20;79.60;;;;;;4975350;28;20035;-64
2021/08/09 05:04:31;;;;;;;1.70;1.60;;;14.10;79.60;;;;;;4986036;28;20093;-63
2021/08/09 05:06:57;;;;;;;1.70;1.60;;;14.10;79.60;;;;;;4982964;28;20093;-64
2021/08/09 05:09:22;;;;;;;3.05;1.90;;;14.20;79.60;;;;;;4985913;28;20030;-64
2021/08/09 05:11:48;;;;;;;3.67;2.13;;;14.30;79.80;;;;;;4972188;28;20046;-64
2021/08/09 05:14:14;;;;;;;2.17;1.90;;;14.30;79.70;;;;;;4978985;28;20045;-64
2021/08/09 05:16:41;;;;;;;3.63;2.20;;;14.30;79.60;;;;;;4985834;28;20031;-63
2021/08/09 05:19:08;;;;;;;5.13;2.00;;;14.30;79.70;;;;;;4979451;28;20424;-64
2021/08/09 05:21:35;;;;;;;3.60;2.40;;;14.30;79.80;;;;;;4975934;28;20050;-64
2021/08/09 05:24:02;;;;;;;2.10;1.63;;;14.30;80.10;;;;;;4973215;28;20031;-64
2021/08/09 05:26:28;;;;;;;3.78;1.80;;;14.30;80.00;;;;;;4975069;28;20038;-64
2021/08/09 05:28:54;;;;;;;2.75;1.80;;;14.30;80.20;;;;;;4983170;28;20034;-63
2021/08/09 05:31:20;;;;;;;2.45;1.85;;;14.30;80.30;;;;;;4972674;28;20046;-63
2021/08/09 05:33:46;;;;;;;3.17;2.03;;;14.40;80.60;;;;;;4967758;28;20043;-63
2021/08/09 05:36:12;;;;;;;4.38;1.85;;;14.40;80.70;;;;;;4970616;28;20125;-64
2021/08/09 05:38:38;;;;;;;2.55;1.75;;;14.50;80.80;;;;;;4976488;28;20038;-64
2021/08/09 05:41:04;;;;;;;5.07;2.20;;;14.50;80.80;;;;;;4961971;28;20540;-63
2021/08/09 05:43:30;;;;;;;2.90;1.70;;;14.50;81.00;;;;;;4950259;28;20035;-64
2021/08/09 05:45:56;;;;;;;3.83;1.67;;;14.60;81.30;;;;;;4954047;28;20776;-63
2021/08/09 05:48:22;;;;;;;3.83;2.10;;;14.60;81.50;;;;;;4959705;28;20173;-63
2021/08/09 05:50:47;;;;;;;3.50;2.30;;;14.70;81.50;;;;;;4969027;28;20126;-64
2021/08/09 05:53:13;;;;;;;3.00;2.08;;;14.80;81.50;;;;;;4964497;28;20035;-64
2021/08/09 05:55:39;;;;;;;3.35;2.13;;;14.80;81.60;;;;;;4952581;28;20039;-64
2021/08/09 05:58:04;;;;;;;3.80;2.13;;;14.90;81.70;;;;;;4957387;28;20160;-64
2021/08/09 06:00:30;;;;;;;5.57;2.40;;;14.90;81.80;;;;;;4959023;28;20417;-64
2021/08/09 06:02:56;;;;;;;4.15;2.45;;;15.00;81.90;;;;;;4960352;28;20042;-64
2021/08/09 06:05:21;;;;;;;6.85;3.88;;;15.10;81.90;;;;;;4956305;28;20047;-64
2021/08/09 06:07:47;;;;;;;5.93;3.80;;;15.20;81.90;;;;;;4959652;28;20030;-64
2021/08/09 06:10:13;;;;;;;9.65;3.90;;;15.20;81.70;;;;;;4957950;28;20157;-66
2021/08/09 06:12:38;;;;;;;7.32;2.83;;;15.30;81.70;;;;;;4954194;28;20047;-64
2021/08/09 06:15:05;;;;;;;3.63;2.33;;;15.40;81.90;;;;;;4957717;28;20035;-66
2021/08/09 06:17:32;;;;;;;4.00;2.20;;;15.40;81.50;;;;;;4966008;28;20070;-66
2021/08/09 06:19:58;;;;;;;5.68;2.20;;;15.50;81.40;;;;;;4953717;28;20039;-66
2021/08/09 06:22:23;;;;;;;4.53;2.20;;;15.50;81.20;;;;;;4951970;28;20623;-64
2021/08/09 06:24:49;;;;;;;4.28;2.10;;;15.60;81.20;;;;;;4970162;28;20053;-64
2021/08/09 06:27:15;;;;;;;4.47;1.70;;;15.60;81.10;;;;;;4956268;28;20034;-64
2021/08/09 06:29:40;;;;;;;4.15;1.85;;;15.60;81.20;;;;;;4955913;28;20039;-64
2021/08/09 06:32:06;;;;;;;2.28;1.80;;;15.70;81.30;;;;;;4963782;28;20042;-64
2021/08/09 06:34:32;;;;;;;4.13;1.55;;;15.70;81.50;;;;;;4954816;28;20042;-64
2021/08/09 06:36:57;;;;;;;2.65;1.83;;;15.80;81.60;;;;;;4954202;28;20713;-64
2021/08/09 06:39:23;;;;;;;3.88;1.80;;;15.80;81.60;;;;;;4955226;28;20370;-64
2021/08/09 06:41:48;;;;;;;4.57;1.60;;;15.90;81.70;;;;;;4953432;28;20062;-63
2021/08/09 06:44:14;;;;;;;2.08;1.55;;;15.90;81.60;;;;;;4954125;28;20673;-64
2021/08/09 06:46:40;;;;;;;4.53;2.20;;;16.00;81.80;;;;;;4974050;28;20042;-63
2021/08/09 06:49:06;;;;;;;5.78;1.80;;;16.10;81.70;;;;;;4980561;28;20065;-64
2021/08/09 06:51:31;;;;;;;1.58;1.48;;;16.10;81.30;;;;;;4977173;28;20042;-64
2021/08/09 06:53:57;;;;;;;6.10;2.10;;;16.20;81.20;;;;;;4980182;28;20034;-64
2021/08/09 06:56:23;;;;;;;4.53;1.70;;;16.20;81.00;;;;;;4977816;28;20338;-63
2021/08/09 06:58:49;;;;;;;2.60;1.70;;;16.30;80.90;;;;;;4974201;28;20042;-64
2021/08/09 07:01:14;;;;;;;1.58;1.40;;;16.40;80.60;;;;;;4973411;28;20045;-64
2021/08/09 07:03:43;;;;;;;3.15;1.60;;;16.50;80.60;;;;;;4977215;28;20058;-64
2021/08/09 07:06:16;;;;;;;3.88;1.73;;;16.60;80.60;;;;;;4977418;28;20046;-64
2021/08/09 07:08:42;;;;;;;2.60;1.30;;;16.60;80.40;;;;;;4980735;28;20069;-64
2021/08/09 07:11:08;;;;;;;1.70;1.30;;;16.70;80.10;;;;;;4971462;28;20530;-64
2021/08/09 07:13:33;;;;;;;3.42;1.40;;;16.70;80.00;;;;;;4981231;28;20130;-64
2021/08/09 07:15:59;;;;;;;2.78;1.50;;;16.80;80.20;;;;;;4995972;28;20406;-64
2021/08/09 07:18:24;;;;;;;1.50;1.17;;;16.90;80.00;;;;;;4977108;28;20046;-64
2021/08/09 07:20:50;;;;;;;3.17;1.48;;;17.00;79.90;;;;;;4978223;28;20121;-66
2021/08/09 07:23:16;;;;;;;2.63;1.42;;;17.10;79.70;;;;;;4976972;28;20041;-64
2021/08/09 07:25:42;;;;;;;2.38;1.50;;;17.20;79.70;;;;;;4979839;28;20046;-64
2021/08/09 07:28:07;;;;;;;4.18;1.50;;;17.30;79.50;;;;;;4979505;28;21305;-62
2021/08/09 07:30:33;;;;;;;3.45;1.55;;;17.30;79.40;;;;;;4989405;28;20142;-64
2021/08/09 07:32:59;;;;;;;3.25;1.52;;;17.40;79.30;;;;;;4976856;28;20043;-64
2021/08/09 07:35:24;;;;;;;5.63;1.50;;;17.50;79.30;;;;;;4982602;28;20051;-64
2021/08/09 07:37:52;;;;;;;5.00;1.30;;;17.60;79.10;;;;;;4979250;28;20049;-64
2021/08/09 07:40:18;;;;;;;4.47;1.40;;;17.70;78.70;;;;;;4980866;28;20035;-64
2021/08/09 07:42:43;;;;;;;3.03;1.00;;;17.80;78.00;;;;;;4977394;28;20046;-64
2021/08/09 07:45:10;;;;;;;2.65;1.10;;;17.90;77.40;;;;;;4993987;28;20198;-63
2021/08/09 07:47:35;;;;;;;2.47;1.10;;;18.00;77.30;;;;;;4978376;28;20050;-64
2021/08/09 07:50:01;;;;;;;3.45;1.17;;;18.10;77.30;;;;;;4998626;28;20093;-63
2021/08/09 07:52:26;;;;;;;2.85;1.70;;;18.10;77.20;;;;;;4976578;28;20041;-64
2021/08/09 07:54:52;;;;;;;3.65;1.27;;;18.20;76.90;;;;;;4979393;28;20043;-64
2021/08/09 07:57:18;;;;;;;1.40;1.10;;;18.30;76.40;;;;;;4982916;28;20550;-64
2021/08/09 07:59:43;;;;;;;2.22;1.05;;;18.40;76.80;;;;;;4991875;28;20664;-64
2021/08/09 08:02:09;;;;;;;1.77;1.10;;;18.50;76.60;;;;;;4981895;28;20035;-64
2021/08/09 08:04:34;;;;;;;5.97;1.10;;;18.50;75.90;;;;;;4977467;28;20035;-64
2021/08/09 08:07:00;;;;;;;1.65;1.05;;;18.60;75.10;;;;;;4981172;28;20042;-64
2021/08/09 08:09:26;;;;;;;1.40;0.80;;;18.70;74.80;;;;;;4988573;28;20118;-64
2021/08/09 08:11:51;;;;;;;2.33;1.20;;;18.80;74.00;;;;;;4983248;28;20030;-64
2021/08/09 08:14:17;;;;;;;2.72;0.90;;;18.90;73.50;;;;;;4986050;28;20034;-64
2021/08/09 08:16:43;;;;;;;2.15;0.63;;;19.00;72.00;;;;;;4987838;28;20030;-64
2021/08/09 08:19:08;;;;;;;1.23;0.60;;;19.10;71.10;;;;;;4986719;28;20081;-64
2021/08/09 08:21:34;;;;;;;1.60;0.70;;;19.20;70.80;;;;;;4988451;28;20045;-64
2021/08/09 08:24:01;;;;;;;1.45;0.47;;;19.20;70.40;;;;;;4988075;28;20034;-64
2021/08/09 08:26:26;;;;;;;1.10;0.60;;;19.30;68.40;;;;;;4981951;28;20549;-64
2021/08/09 08:28:52;;;;;;;1.70;0.70;;;19.40;68.90;;;;;;4984510;28;20061;-64
2021/08/09 08:31:18;;;;;;;2.33;0.77;;;19.50;68.60;;;;;;4983614;28;20038;-64
2021/08/09 08:33:43;;;;;;;1.23;0.63;;;19.60;68.30;;;;;;4980787;28;20034;-64
2021/08/09 08:36:09;;;;;;;3.50;0.95;;;19.60;67.70;;;;;;4984132;28;20484;-64
2021/08/09 08:38:35;;;;;;;1.27;0.52;;;19.80;67.70;;;;;;4983413;28;20544;-64
2021/08/09 08:41:05;;;;;;;1.33;0.60;;;19.80;67.10;;;;;;4985415;28;20417;-64
2021/08/09 08:43:31;;;;;;;2.88;0.70;;;19.90;65.70;;;;;;4982039;28;20040;-64
2021/08/09 08:46:02;;;;;;;1.17;0.60;;;20.00;65.40;;;;;;4976612;28;20388;-64
2021/08/09 08:48:30;;;;;;;2.00;0.80;;;20.10;64.60;;;;;;4978263;28;20034;-64
2021/08/09 08:50:57;;;;;;;1.67;0.77;;;20.10;64.60;;;;;;4982764;28;20046;-64
2021/08/09 08:53:27;;;;;;;1.38;0.60;;;20.20;64.10;;;;;;4985208;28;20041;-64
2021/08/09 08:55:53;;;;;;;1.25;0.50;;;20.30;64.80;;;;;;4961140;28;20049;-64
2021/08/09 08:58:18;;;;;;;2.80;0.80;;;20.30;64.20;;;;;;4978471;28;20043;-65
2021/08/09 09:00:47;;;;;;;1.67;0.63;;;20.40;63.40;;;;;;4980015;28;20446;-65
2021/08/09 09:03:17;;;;;;;2.05;0.80;;;20.50;63.40;;;;;;4978899;28;20048;-65
2021/08/09 09:06:05;;;;;;;0.88;0.60;;;20.60;63.00;;;;;;4980257;28;20043;-65
2021/08/09 09:08:37;;;;;;;1.30;0.65;;;20.60;59.70;;;;;;4980572;28;20536;-64
2021/08/09 09:11:03;;;;;;;0.82;0.50;;;20.70;61.20;;;;;;4990011;28;20281;-64
2021/08/09 09:13:29;;;;;;;1.42;0.40;;;20.80;61.50;;;;;;4979302;28;20216;-65
2021/08/09 09:16:02;;;;;;;1.10;0.57;;;20.90;61.90;;;;;;4993968;28;20145;-64
2021/08/09 09:18:44;;;;;;;1.00;0.47;;;20.90;61.10;;;;;;4966434;28;20076;-64
2021/08/09 09:21:12;;;;;;;1.08;0.45;;;21.00;60.60;;;;;;4958057;28;22070;-64
2021/08/09 09:23:38;;;;;;;0.68;0.52;;;21.00;61.70;;;;;;4963227;28;20523;-65
2021/08/09 09:26:20;;;;;;;2.55;0.93;;;21.10;61.30;;;;;;4965529;28;20105;-64
2021/08/09 09:28:45;;;;;;;1.00;0.60;;;21.20;60.30;;;;;;4965549;28;20043;-64
2021/08/09 09:31:24;;;;;;;1.48;0.50;;;21.30;61.50;;;;;;4962247;28;20924;-64
2021/08/09 09:33:50;;;;;;;0.77;0.60;;;21.40;61.20;;;;;;4965404;28;20039;-64
2021/08/09 09:36:20;;;;;;;0.60;0.50;;;21.50;60.60;;;;;;4964679;28;20051;-64
2021/08/09 09:38:45;;;;;;;2.92;0.70;;;21.50;60.10;;;;;;4964976;28;20528;-64
2021/08/09 09:41:12;;;;;;;1.58;0.57;;;21.70;61.00;;;;;;4967034;28;20035;-64
2021/08/09 09:43:42;;;;;;;0.70;0.52;;;21.80;59.70;;;;;;4966015;28;20663;-65
2021/08/09 09:46:23;;;;;;;1.27;0.68;;;21.80;59.00;;;;;;4965108;28;20047;-64
2021/08/09 09:48:50;;;;;;;1.25;0.50;;;21.90;57.40;;;;;;4971714;28;20046;-63
2021/08/09 09:51:17;;;;;;;1.33;0.60;;;21.90;57.70;;;;;;4965932;28;20038;-64
2021/08/09 09:53:45;;;;;;;2.13;0.60;;;22.00;58.10;;;;;;4965166;28;20038;-65
2021/08/09 09:56:11;;;;;;;0.80;0.50;;;22.10;58.00;;;;;;4965946;28;20042;-65
2021/08/09 09:58:38;;;;;;;1.17;0.65;;;22.10;57.30;;;;;;4966312;28;20162;-65
2021/08/09 10:01:05;;;;;;;1.77;0.50;;;22.20;57.40;;;;;;4965062;28;20133;-65
2021/08/09 10:03:32;;;;;;;0.85;0.40;;;22.20;57.20;;;;;;4975990;28;20035;-65
2021/08/09 10:06:00;;;;;;;1.33;0.43;;;22.30;57.00;;;;;;4964810;28;20567;-64
2021/08/09 10:08:31;;;;;;;0.93;0.50;;;22.30;56.40;;;;;;4968010;28;20046;-65
2021/08/09 10:11:00;;;;;;;1.95;0.60;;;22.40;56.60;;;;;;4960797;28;20030;-64
2021/08/09 10:13:27;;;;;;;0.85;0.68;;;22.40;56.60;;;;;;4962947;28;20086;-65
2021/08/09 10:16:04;;;;;;;0.77;0.47;;;22.40;55.60;;;;;;4964639;28;20136;-64
2021/08/09 10:18:33;;;;;;;1.27;0.50;;;22.50;55.70;;;;;;4968032;28;20069;-65
2021/08/09 10:21:01;;;;;;;0.95;0.50;;;22.50;55.40;;;;;;4966552;28;20043;-65
2021/08/09 10:23:48;;;;;;;0.82;0.40;;;22.60;55.60;;;;;;4968378;28;20106;-64
2021/08/09 10:26:26;;;;;;;1.20;0.40;;;22.70;55.20;;;;;;4969316;28;20038;-64
2021/08/09 10:28:54;;;;;;;0.85;0.40;;;22.70;56.20;;;;;;4969541;28;20034;-65
2021/08/09 10:31:24;;;;;;;0.70;0.40;;;22.80;56.20;;;;;;4986510;28;20045;-64
2021/08/09 10:33:50;;;;;;;1.88;0.70;;;22.80;55.60;;;;;;4979909;28;20037;-64
2021/08/09 10:36:21;;;;;;;1.58;0.55;;;22.90;55.90;;;;;;4966950;28;20080;-64
2021/08/09 10:38:52;;;;;;;1.13;0.50;;;23.00;55.60;;;;;;4966313;28;20045;-64
2021/08/09 10:41:26;;;;;;;0.80;0.45;;;23.10;55.90;;;;;;4971759;28;20042;-64
2021/08/09 10:44:19;;;;;;;0.77;0.47;;;23.10;55.00;;;;;;4980455;28;20584;-66
2021/08/09 10:46:45;;;;;;;1.77;0.60;;;23.20;54.50;;;;;;4984594;28;20101;-64
2021/08/09 10:49:39;;;;;;;1.00;0.50;;;23.30;55.00;;;;;;4988715;28;20050;-64
2021/08/09 10:52:08;;;;;;;0.98;0.50;;;23.40;53.60;;;;;;5001981;28;20023;-65
2021/08/09 10:54:36;;;;;;;0.60;0.50;;;23.40;53.90;;;;;;4987906;28;20046;-64
2021/08/09 10:57:03;;;;;;;2.38;0.70;;;23.40;53.90;;;;;;4990059;28;20508;-65
2021/08/09 10:59:41;;;;;;;1.23;0.50;;;23.40;54.20;;;;;;4989811;28;20401;-65
2021/08/09 11:02:14;;;;;;;0.95;0.47;;;23.40;53.20;;;;;;4988519;28;20141;-65
2021/08/09 11:04:40;;;;;;;1.85;0.60;;;23.40;54.10;;;;;;4988254;28;20039;-65
2021/08/09 11:07:16;;;;;;;0.55;0.43;;;23.40;54.30;;;;;;4989583;28;20528;-65
2021/08/09 11:09:44;;;;;;;1.63;0.65;;;23.50;53.00;;;;;;5004382;28;20033;-65
2021/08/09 11:12:21;;;;;;;1.25;0.60;;;23.50;53.10;;;;;;4984047;28;20033;-65
2021/08/09 11:15:06;;;;;;;0.63;0.50;;;23.60;51.50;;;;;;4989218;28;20054;-65
2021/08/09 11:17:56;;;;;;;0.70;0.50;;;23.60;51.40;;;;;;4989582;28;20548;-65
2021/08/09 11:20:25;;;;;;;0.95;0.50;;;23.70;51.80;;;;;;4989341;28;20437;-63
2021/08/09 11:23:13;;;;;;;0.77;0.60;;;23.70;52.60;;;;;;4989136;28;20430;-64
2021/08/09 11:25:48;;;;;;;0.50;0.45;;;23.80;52.20;;;;;;4987997;28;20049;-65
2021/08/09 11:28:24;;;;;;;0.80;0.47;;;23.80;51.30;;;;;;4988878;28;20049;-65
2021/08/09 11:30:51;;;;;;;1.00;0.50;;;23.90;51.60;;;;;;4988587;28;20038;-65
2021/08/09 11:33:33;;;;;;;1.15;0.60;;;23.90;51.60;;;;;;4987167;28;20467;-64
2021/08/09 11:35:58;;;;;;;0.75;0.50;;;24.00;51.40;;;;;;4988173;28;20528;-65
2021/08/09 11:38:25;;;;;;;0.65;0.40;;;24.00;51.90;;;;;;5004105;28;20026;-65
2021/08/09 11:40:53;;;;;;;1.67;0.60;;;24.00;52.30;;;;;;4988723;28;20038;-65
2021/08/09 11:43:29;;;;;;;0.90;0.50;;;24.00;51.20;;;;;;4987372;28;20035;-64
2021/08/09 11:46:10;;;;;;;0.93;0.50;;;24.10;51.70;;;;;;4989024;28;20030;-65
2021/08/09 11:48:38;;;;;;;2.83;0.70;;;24.10;52.40;;;;;;4987148;28;20042;-65
2021/08/09 11:51:27;;;;;;;1.75;0.63;;;24.10;52.50;;;;;;4988351;28;20045;-64
2021/08/09 11:53:55;;;;;;;0.82;0.45;;;24.20;49.60;;;;;;4981057;28;20046;-64
2021/08/09 11:56:24;;;;;;;2.53;0.68;;;24.20;50.50;;;;;;4979932;28;20409;-65
2021/08/09 11:58:50;;;;;;;0.60;0.50;;;24.20;50.80;;;;;;4985740;28;20030;-64
2021/08/09 12:01:34;;;;;;;1.08;0.60;;;24.20;50.30;;;;;;4985426;28;20509;-65
2021/08/09 12:04:08;;;;;;;1.98;0.50;;;24.20;50.00;;;;;;4985115;28;20578;-65
2021/08/09 12:06:55;;;;;;;1.27;0.50;;;24.20;51.40;;;;;;4999772;28;20046;-65
2021/08/09 12:09:25;;;;;;;2.15;0.55;;;24.20;50.40;;;;;;4986404;28;20038;-65
2021/08/09 12:12:18;;;;;;;2.00;0.70;;;24.30;51.20;;;;;;4980569;28;20085;-65
2021/08/09 12:14:44;;;;;;;1.35;0.85;;;24.30;50.80;;;;;;4985944;28;20093;-65
2021/08/09 12:17:18;;;;;;;1.05;0.50;;;24.40;50.90;;;;;;4983424;28;20573;-64
2021/08/09 12:19:46;;;;;;;0.40;0.40;;;24.40;50.70;;;;;;4987308;28;20065;-65
2021/08/09 12:22:32;;;;;;;0.63;0.50;;;24.40;50.40;;;;;;4987384;28;20118;-65
2021/08/09 12:25:00;;;;;;;1.38;0.43;;;24.40;49.60;;;;;;4983873;28;20038;-65
2021/08/09 12:27:26;;;;;;;1.63;0.70;;;24.50;50.00;;;;;;4978691;28;20049;-64
2021/08/09 12:29:58;;;;;;;0.73;0.60;;;24.50;50.30;;;;;;4976387;28;20038;-64
2021/08/09 12:32:26;;;;;;;0.93;0.60;;;24.60;49.80;;;;;;4972300;28;20041;-64
2021/08/09 12:34:51;;;;;;;1.33;0.60;;;24.70;50.40;;;;;;4966526;28;20042;-65
2021/08/09 12:37:17;;;;;;;1.38;0.50;;;24.70;50.20;;;;;;4972920;28;20157;-64
2021/08/09 12:39:43;;;;;;;4.00;0.55;;;24.70;49.90;;;;;;4984334;28;20395;-65
2021/08/09 12:42:16;;;;;;;0.77;0.52;;;24.70;49.20;;;;;;4972578;28;20038;-64
2021/08/09 12:44:43;;;;;;;1.98;0.50;;;24.70;48.00;;;;;;4968776;28;22724;-64
2021/08/09 12:47:09;;;;;;;1.15;0.52;;;24.70;49.30;;;;;;4971208;28;20038;-64
2021/08/09 12:49:34;;;;;;;0.60;0.38;;;24.70;49.20;;;;;;4971152;28;20413;-64
2021/08/09 12:52:00;;;;;;;1.42;0.60;;;24.70;50.20;;;;;;4988174;28;20035;-64
2021/08/09 12:54:26;;;;;;;0.82;0.70;;;24.70;49.30;;;;;;4984602;28;20039;-64